sensor_id;sensor_type;location;lat;lon;timestamp;temperature;humidity
670;DHT22;317;48.758;9.302;2022-10-31T00:00:28;11.40;99.90
670;DHT22;317;48.758;9.302;2022-10-31T00:02:54;11.30;99.90
670;DHT22;317;48.758;9.302;2022-10-31T00:05:21;11.40;99.90
670;DHT22;317;48.758;9.302;2022-10-31T00:07:53;11.70;99.90
670;DHT22;317;48.758;9.302;2022-10-31T00:10:19;11.60;99.90
670;DHT22;317;48.758;9.302;2022-10-31T00:12:46;11.30;99.90
670;DHT22;317;48.758;9.302;2022-10-31T00:15:13;11.60;99.90
670;DHT22;317;48.758;9.302;2022-10-31T00:17:40;11.20;99.90
670;DHT22;317;48.758;9.302;2022-10-31T00:20:07;11.60;99.90
670;DHT22;317;48.758;9.302;2022-10-31T00:22:34;11.70;99.90
670;DHT22;317;48.758;9.302;2022-10-31T00:25:03;11.60;99.90
670;DHT22;317;48.758;9.302;2022-10-31T00:27:30;11.70;99.90
670;DHT22;317;48.758;9.302;2022-10-31T00:29:56;11.10;99.90
670;DHT22;317;48.758;9.302;2022-10-31T00:32:23;11.50;99.90
670;DHT22;317;48.758;9.302;2022-10-31T00:34:50;11.30;99.90
670;DHT22;317;48.758;9.302;2022-10-31T00:37:16;11.50;99.90
670;DHT22;317;48.758;9.302;2022-10-31T00:39:43;11.40;99.90
670;DHT22;317;48.758;9.302;2022-10-31T00:42:12;11.10;99.90
670;DHT22;317;48.758;9.302;2022-10-31T00:44:39;11.00;99.90
670;DHT22;317;48.758;9.302;2022-10-31T00:47:05;11.10;99.90
670;DHT22;317;48.758;9.302;2022-10-31T00:49:32;11.40;99.90
670;DHT22;317;48.758;9.302;2022-10-31T00:51:59;10.90;99.90
670;DHT22;317;48.758;9.302;2022-10-31T00:54:26;11.40;99.90
670;DHT22;317;48.758;9.302;2022-10-31T00:56:53;11.50;99.90
670;DHT22;317;48.758;9.302;2022-10-31T00:59:21;10.90;99.90
670;DHT22;317;48.758;9.302;2022-10-31T01:01:48;11.50;99.90
670;DHT22;317;48.758;9.302;2022-10-31T01:04:14;11.10;99.90
670;DHT22;317;48.758;9.302;2022-10-31T01:06:41;11.40;99.90
670;DHT22;317;48.758;9.302;2022-10-31T01:09:08;11.10;99.90
670;DHT22;317;48.758;9.302;2022-10-31T01:11:35;11.00;99.90
670;DHT22;317;48.758;9.302;2022-10-31T01:14:02;11.30;99.90
670;DHT22;317;48.758;9.302;2022-10-31T01:16:30;11.20;99.90
670;DHT22;317;48.758;9.302;2022-10-31T01:18:57;11.30;99.90
670;DHT22;317;48.758;9.302;2022-10-31T01:21:25;11.30;99.90
670;DHT22;317;48.758;9.302;2022-10-31T01:23:56;11.30;99.90
670;DHT22;317;48.758;9.302;2022-10-31T01:26:25;11.10;99.90
670;DHT22;317;48.758;9.302;2022-10-31T01:28:53;11.20;99.90
670;DHT22;317;48.758;9.302;2022-10-31T01:31:23;10.90;99.90
670;DHT22;317;48.758;9.302;2022-10-31T01:33:52;11.10;99.90
670;DHT22;317;48.758;9.302;2022-10-31T01:36:21;11.10;99.90
670;DHT22;317;48.758;9.302;2022-10-31T01:38:49;11.40;99.90
670;DHT22;317;48.758;9.302;2022-10-31T01:41:20;10.70;99.90
670;DHT22;317;48.758;9.302;2022-10-31T01:43:51;10.70;99.90
670;DHT22;317;48.758;9.302;2022-10-31T01:46:21;10.70;99.90
670;DHT22;317;48.758;9.302;2022-10-31T01:48:48;11.10;99.90
670;DHT22;317;48.758;9.302;2022-10-31T01:51:19;10.70;99.90
670;DHT22;317;48.758;9.302;2022-10-31T01:53:47;10.70;99.90
670;DHT22;317;48.758;9.302;2022-10-31T01:56:16;10.70;99.90
670;DHT22;317;48.758;9.302;2022-10-31T01:58:45;10.60;99.90
670;DHT22;317;48.758;9.302;2022-10-31T02:01:13;11.00;99.90
670;DHT22;317;48.758;9.302;2022-10-31T02:03:41;11.10;99.90
670;DHT22;317;48.758;9.302;2022-10-31T02:06:13;10.50;99.90
670;DHT22;317;48.758;9.302;2022-10-31T02:08:42;10.90;99.90
670;DHT22;317;48.758;9.302;2022-10-31T02:11:10;10.70;99.90
670;DHT22;317;48.758;9.302;2022-10-31T02:13:40;11.10;99.90
670;DHT22;317;48.758;9.302;2022-10-31T02:16:09;10.90;99.90
670;DHT22;317;48.758;9.302;2022-10-31T02:18:37;10.70;99.90
670;DHT22;317;48.758;9.302;2022-10-31T02:21:09;10.50;99.90
670;DHT22;317;48.758;9.302;2022-10-31T02:26:43;11.10;99.90
670;DHT22;317;48.758;9.302;2022-10-31T02:32:20;10.90;99.90
670;DHT22;317;48.758;9.302;2022-10-31T02:34:56;10.70;99.90
670;DHT22;317;48.758;9.302;2022-10-31T02:37:29;10.60;99.90
670;DHT22;317;48.758;9.302;2022-10-31T02:40:05;10.80;99.90
670;DHT22;317;48.758;9.302;2022-10-31T02:42:41;10.40;99.90
670;DHT22;317;48.758;9.302;2022-10-31T02:45:15;10.80;99.90
670;DHT22;317;48.758;9.302;2022-10-31T02:47:48;10.80;99.90
670;DHT22;317;48.758;9.302;2022-10-31T02:50:19;10.80;99.90
670;DHT22;317;48.758;9.302;2022-10-31T02:52:50;10.70;99.90
670;DHT22;317;48.758;9.302;2022-10-31T02:55:49;10.80;99.90
670;DHT22;317;48.758;9.302;2022-10-31T02:58:19;10.90;99.90
670;DHT22;317;48.758;9.302;2022-10-31T03:00:57;10.40;99.90
670;DHT22;317;48.758;9.302;2022-10-31T03:03:35;10.80;99.90
670;DHT22;317;48.758;9.302;2022-10-31T03:06:08;10.40;99.90
670;DHT22;317;48.758;9.302;2022-10-31T03:08:43;10.40;99.90
670;DHT22;317;48.758;9.302;2022-10-31T03:11:14;10.80;99.90
670;DHT22;317;48.758;9.302;2022-10-31T03:13:46;10.40;99.90
670;DHT22;317;48.758;9.302;2022-10-31T03:16:19;10.60;99.90
670;DHT22;317;48.758;9.302;2022-10-31T03:18:53;10.60;99.90
670;DHT22;317;48.758;9.302;2022-10-31T03:21:25;10.40;99.90
670;DHT22;317;48.758;9.302;2022-10-31T03:23:54;10.50;99.90
670;DHT22;317;48.758;9.302;2022-10-31T03:26:24;10.70;99.90
670;DHT22;317;48.758;9.302;2022-10-31T03:28:54;10.80;99.90
670;DHT22;317;48.758;9.302;2022-10-31T03:31:28;10.60;99.90
670;DHT22;317;48.758;9.302;2022-10-31T03:33:59;10.50;99.90
670;DHT22;317;48.758;9.302;2022-10-31T03:36:28;10.70;99.90
670;DHT22;317;48.758;9.302;2022-10-31T03:38:57;10.60;99.90
670;DHT22;317;48.758;9.302;2022-10-31T03:41:28;10.70;99.90
670;DHT22;317;48.758;9.302;2022-10-31T03:44:00;10.50;99.90
670;DHT22;317;48.758;9.302;2022-10-31T03:46:28;10.00;99.90
670;DHT22;317;48.758;9.302;2022-10-31T03:48:56;10.10;99.90
670;DHT22;317;48.758;9.302;2022-10-31T03:51:28;10.20;99.90
670;DHT22;317;48.758;9.302;2022-10-31T03:54:03;10.50;99.90
670;DHT22;317;48.758;9.302;2022-10-31T03:56:36;10.50;99.90
670;DHT22;317;48.758;9.302;2022-10-31T03:59:07;10.10;99.90
670;DHT22;317;48.758;9.302;2022-10-31T04:01:40;9.90;99.90
670;DHT22;317;48.758;9.302;2022-10-31T04:04:08;10.40;99.90
670;DHT22;317;48.758;9.302;2022-10-31T04:06:38;10.40;99.90
670;DHT22;317;48.758;9.302;2022-10-31T04:09:07;9.90;99.90
670;DHT22;317;48.758;9.302;2022-10-31T04:11:38;10.40;99.90
670;DHT22;317;48.758;9.302;2022-10-31T04:14:08;10.50;99.90
670;DHT22;317;48.758;9.302;2022-10-31T04:16:36;10.10;99.90
670;DHT22;317;48.758;9.302;2022-10-31T04:19:04;10.30;99.90
670;DHT22;317;48.758;9.302;2022-10-31T04:21:31;9.90;99.90
670;DHT22;317;48.758;9.302;2022-10-31T04:23:59;10.40;99.90
670;DHT22;317;48.758;9.302;2022-10-31T04:26:25;10.30;99.90
670;DHT22;317;48.758;9.302;2022-10-31T04:28:52;10.50;99.90
670;DHT22;317;48.758;9.302;2022-10-31T04:31:19;10.00;99.90
670;DHT22;317;48.758;9.302;2022-10-31T04:33:46;10.20;99.90
670;DHT22;317;48.758;9.302;2022-10-31T04:36:13;10.20;99.90
670;DHT22;317;48.758;9.302;2022-10-31T04:38:40;10.20;99.90
670;DHT22;317;48.758;9.302;2022-10-31T04:41:09;10.10;99.90
670;DHT22;317;48.758;9.302;2022-10-31T04:43:35;9.90;99.90
670;DHT22;317;48.758;9.302;2022-10-31T04:46:02;10.00;99.90
670;DHT22;317;48.758;9.302;2022-10-31T04:48:29;9.70;99.90
670;DHT22;317;48.758;9.302;2022-10-31T04:50:59;10.10;99.90
670;DHT22;317;48.758;9.302;2022-10-31T04:53:26;10.20;99.90
670;DHT22;317;48.758;9.302;2022-10-31T04:55:53;10.30;99.90
670;DHT22;317;48.758;9.302;2022-10-31T04:58:21;9.80;99.90
670;DHT22;317;48.758;9.302;2022-10-31T05:00:50;9.80;99.90
670;DHT22;317;48.758;9.302;2022-10-31T05:03:17;9.90;99.90
670;DHT22;317;48.758;9.302;2022-10-31T05:05:44;10.10;99.90
670;DHT22;317;48.758;9.302;2022-10-31T05:08:11;10.00;99.90
670;DHT22;317;48.758;9.302;2022-10-31T05:10:38;10.10;99.90
670;DHT22;317;48.758;9.302;2022-10-31T05:13:04;9.60;99.90
670;DHT22;317;48.758;9.302;2022-10-31T05:15:33;9.60;99.90
670;DHT22;317;48.758;9.302;2022-10-31T05:18:00;9.80;99.90
670;DHT22;317;48.758;9.302;2022-10-31T05:20:28;9.90;99.90
670;DHT22;317;48.758;9.302;2022-10-31T05:22:56;9.60;99.90
670;DHT22;317;48.758;9.302;2022-10-31T05:25:25;9.80;99.90
670;DHT22;317;48.758;9.302;2022-10-31T05:27:53;9.80;99.90
670;DHT22;317;48.758;9.302;2022-10-31T05:30:22;9.50;99.90
670;DHT22;317;48.758;9.302;2022-10-31T05:32:51;9.90;99.90
670;DHT22;317;48.758;9.302;2022-10-31T05:35:19;9.90;99.90
670;DHT22;317;48.758;9.302;2022-10-31T05:37:46;9.90;99.90
670;DHT22;317;48.758;9.302;2022-10-31T05:40:15;9.30;99.90
670;DHT22;317;48.758;9.302;2022-10-31T05:42:42;9.80;99.90
670;DHT22;317;48.758;9.302;2022-10-31T05:45:11;9.50;99.90
670;DHT22;317;48.758;9.302;2022-10-31T05:47:39;9.50;99.90
670;DHT22;317;48.758;9.302;2022-10-31T05:50:08;9.50;99.90
670;DHT22;317;48.758;9.302;2022-10-31T05:52:36;10.10;99.90
670;DHT22;317;48.758;9.302;2022-10-31T05:55:03;9.80;99.90
670;DHT22;317;48.758;9.302;2022-10-31T05:57:32;9.90;99.90
670;DHT22;317;48.758;9.302;2022-10-31T05:59:59;9.90;99.90
670;DHT22;317;48.758;9.302;2022-10-31T06:02:25;9.70;99.90
670;DHT22;317;48.758;9.302;2022-10-31T06:04:57;9.80;99.90
670;DHT22;317;48.758;9.302;2022-10-31T06:07:25;9.20;99.90
670;DHT22;317;48.758;9.302;2022-10-31T06:09:51;9.60;99.90
670;DHT22;317;48.758;9.302;2022-10-31T06:12:18;9.50;99.90
670;DHT22;317;48.758;9.302;2022-10-31T06:14:45;9.20;99.90
670;DHT22;317;48.758;9.302;2022-10-31T06:17:12;9.20;99.90
670;DHT22;317;48.758;9.302;2022-10-31T06:19:38;9.50;99.90
670;DHT22;317;48.758;9.302;2022-10-31T06:22:05;9.20;99.90
670;DHT22;317;48.758;9.302;2022-10-31T06:24:33;9.30;99.90
670;DHT22;317;48.758;9.302;2022-10-31T06:27:00;9.20;99.90
670;DHT22;317;48.758;9.302;2022-10-31T06:29:27;9.70;99.90
670;DHT22;317;48.758;9.302;2022-10-31T06:31:54;9.70;99.90
670;DHT22;317;48.758;9.302;2022-10-31T06:34:21;9.80;99.90
670;DHT22;317;48.758;9.302;2022-10-31T06:36:48;9.80;99.90
670;DHT22;317;48.758;9.302;2022-10-31T06:39:15;9.30;99.90
670;DHT22;317;48.758;9.302;2022-10-31T06:41:43;9.70;99.90
670;DHT22;317;48.758;9.302;2022-10-31T06:44:10;9.80;99.90
670;DHT22;317;48.758;9.302;2022-10-31T06:46:37;9.60;99.90
670;DHT22;317;48.758;9.302;2022-10-31T06:49:03;9.60;99.90
670;DHT22;317;48.758;9.302;2022-10-31T06:51:30;9.80;99.90
670;DHT22;317;48.758;9.302;2022-10-31T06:53:57;9.50;99.90
670;DHT22;317;48.758;9.302;2022-10-31T06:56:23;9.70;99.90
670;DHT22;317;48.758;9.302;2022-10-31T06:58:52;9.50;99.90
670;DHT22;317;48.758;9.302;2022-10-31T07:01:18;10.10;99.90
670;DHT22;317;48.758;9.302;2022-10-31T07:03:46;9.70;99.90
670;DHT22;317;48.758;9.302;2022-10-31T07:06:13;10.00;99.90
670;DHT22;317;48.758;9.302;2022-10-31T07:08:40;9.70;99.90
670;DHT22;317;48.758;9.302;2022-10-31T07:11:07;9.80;99.90
670;DHT22;317;48.758;9.302;2022-10-31T07:13:33;9.70;99.90
670;DHT22;317;48.758;9.302;2022-10-31T07:16:03;9.70;99.90
670;DHT22;317;48.758;9.302;2022-10-31T07:18:32;10.20;99.90
670;DHT22;317;48.758;9.302;2022-10-31T07:20:59;9.90;99.90
670;DHT22;317;48.758;9.302;2022-10-31T07:23:27;9.80;99.90
670;DHT22;317;48.758;9.302;2022-10-31T07:25:55;10.00;99.90
670;DHT22;317;48.758;9.302;2022-10-31T07:28:21;10.20;99.90
670;DHT22;317;48.758;9.302;2022-10-31T07:30:50;10.50;99.90
670;DHT22;317;48.758;9.302;2022-10-31T07:33:19;10.50;99.90
670;DHT22;317;48.758;9.302;2022-10-31T07:35:46;10.50;99.90
670;DHT22;317;48.758;9.302;2022-10-31T07:38:14;10.50;99.90
670;DHT22;317;48.758;9.302;2022-10-31T07:40:42;10.60;99.90
670;DHT22;317;48.758;9.302;2022-10-31T07:43:10;10.40;99.90
670;DHT22;317;48.758;9.302;2022-10-31T07:45:37;10.50;99.90
670;DHT22;317;48.758;9.302;2022-10-31T07:48:04;10.40;99.90
670;DHT22;317;48.758;9.302;2022-10-31T07:50:33;10.90;99.90
670;DHT22;317;48.758;9.302;2022-10-31T07:53:01;10.40;99.90
670;DHT22;317;48.758;9.302;2022-10-31T07:55:29;10.50;99.90
670;DHT22;317;48.758;9.302;2022-10-31T07:57:58;10.60;99.90
670;DHT22;317;48.758;9.302;2022-10-31T08:00:26;11.00;99.90
670;DHT22;317;48.758;9.302;2022-10-31T08:02:59;10.70;99.90
670;DHT22;317;48.758;9.302;2022-10-31T08:05:26;10.70;99.90
670;DHT22;317;48.758;9.302;2022-10-31T08:07:55;10.80;99.90
670;DHT22;317;48.758;9.302;2022-10-31T08:10:22;11.20;99.90
670;DHT22;317;48.758;9.302;2022-10-31T08:12:55;10.90;99.90
670;DHT22;317;48.758;9.302;2022-10-31T08:15:22;11.30;99.90
670;DHT22;317;48.758;9.302;2022-10-31T08:17:48;11.30;99.90
670;DHT22;317;48.758;9.302;2022-10-31T08:20:15;11.50;99.90
670;DHT22;317;48.758;9.302;2022-10-31T08:22:42;11.60;99.90
670;DHT22;317;48.758;9.302;2022-10-31T08:25:10;11.80;99.90
670;DHT22;317;48.758;9.302;2022-10-31T08:27:37;11.40;99.90
670;DHT22;317;48.758;9.302;2022-10-31T08:30:05;11.80;99.90
670;DHT22;317;48.758;9.302;2022-10-31T08:32:32;11.90;99.90
670;DHT22;317;48.758;9.302;2022-10-31T08:34:58;11.70;99.90
670;DHT22;317;48.758;9.302;2022-10-31T08:37:28;11.70;99.90
670;DHT22;317;48.758;9.302;2022-10-31T08:39:55;11.90;99.90
670;DHT22;317;48.758;9.302;2022-10-31T08:42:23;12.30;99.90
670;DHT22;317;48.758;9.302;2022-10-31T08:44:50;12.40;99.90
670;DHT22;317;48.758;9.302;2022-10-31T08:47:18;12.50;99.90
670;DHT22;317;48.758;9.302;2022-10-31T08:49:45;12.30;99.90
670;DHT22;317;48.758;9.302;2022-10-31T08:52:11;12.80;99.90
670;DHT22;317;48.758;9.302;2022-10-31T08:54:40;12.80;99.90
670;DHT22;317;48.758;9.302;2022-10-31T08:57:07;13.00;99.90
670;DHT22;317;48.758;9.302;2022-10-31T08:59:35;13.10;99.90
670;DHT22;317;48.758;9.302;2022-10-31T09:02:02;13.20;99.90
670;DHT22;317;48.758;9.302;2022-10-31T09:04:29;13.30;99.90
670;DHT22;317;48.758;9.302;2022-10-31T09:06:56;13.30;99.90
670;DHT22;317;48.758;9.302;2022-10-31T09:09:23;13.40;99.90
670;DHT22;317;48.758;9.302;2022-10-31T09:11:50;13.50;99.90
670;DHT22;317;48.758;9.302;2022-10-31T09:14:16;13.50;99.90
670;DHT22;317;48.758;9.302;2022-10-31T09:16:45;13.60;99.90
670;DHT22;317;48.758;9.302;2022-10-31T09:19:12;13.70;99.90
670;DHT22;317;48.758;9.302;2022-10-31T09:21:38;13.80;99.90
670;DHT22;317;48.758;9.302;2022-10-31T09:24:05;13.80;99.90
670;DHT22;317;48.758;9.302;2022-10-31T09:26:33;13.80;99.90
670;DHT22;317;48.758;9.302;2022-10-31T09:29:00;14.00;99.90
670;DHT22;317;48.758;9.302;2022-10-31T09:31:27;14.10;99.90
670;DHT22;317;48.758;9.302;2022-10-31T09:33:55;14.20;99.90
670;DHT22;317;48.758;9.302;2022-10-31T09:36:22;14.20;99.90
670;DHT22;317;48.758;9.302;2022-10-31T09:38:49;14.30;99.90
670;DHT22;317;48.758;9.302;2022-10-31T09:41:21;14.40;99.90
670;DHT22;317;48.758;9.302;2022-10-31T09:43:57;14.40;99.90
670;DHT22;317;48.758;9.302;2022-10-31T09:46:46;14.60;99.90
670;DHT22;317;48.758;9.302;2022-10-31T09:49:37;14.70;99.90
670;DHT22;317;48.758;9.302;2022-10-31T09:52:11;14.80;99.90
670;DHT22;317;48.758;9.302;2022-10-31T09:54:44;14.90;99.90
670;DHT22;317;48.758;9.302;2022-10-31T09:57:14;15.10;99.90
670;DHT22;317;48.758;9.302;2022-10-31T09:59:43;15.10;99.90
670;DHT22;317;48.758;9.302;2022-10-31T10:02:14;15.30;99.90
670;DHT22;317;48.758;9.302;2022-10-31T10:04:49;15.40;99.90
670;DHT22;317;48.758;9.302;2022-10-31T10:07:25;15.50;99.90
670;DHT22;317;48.758;9.302;2022-10-31T10:09:55;15.80;99.90
670;DHT22;317;48.758;9.302;2022-10-31T10:12:42;16.00;99.90
670;DHT22;317;48.758;9.302;2022-10-31T10:15:42;15.90;99.90
670;DHT22;317;48.758;9.302;2022-10-31T10:18:23;16.10;99.90
670;DHT22;317;48.758;9.302;2022-10-31T10:21:03;16.30;99.90
670;DHT22;317;48.758;9.302;2022-10-31T10:23:48;16.50;99.90
670;DHT22;317;48.758;9.302;2022-10-31T10:26:18;16.80;99.90
670;DHT22;317;48.758;9.302;2022-10-31T10:28:49;16.90;99.90
670;DHT22;317;48.758;9.302;2022-10-31T10:31:21;17.10;99.90
670;DHT22;317;48.758;9.302;2022-10-31T10:33:59;17.30;99.90
670;DHT22;317;48.758;9.302;2022-10-31T10:36:32;17.50;99.90
670;DHT22;317;48.758;9.302;2022-10-31T10:39:05;17.50;99.90
670;DHT22;317;48.758;9.302;2022-10-31T10:41:44;17.80;99.90
670;DHT22;317;48.758;9.302;2022-10-31T10:44:11;17.90;99.90
670;DHT22;317;48.758;9.302;2022-10-31T10:46:41;18.00;99.90
670;DHT22;317;48.758;9.302;2022-10-31T10:49:31;18.10;99.90
670;DHT22;317;48.758;9.302;2022-10-31T10:52:06;18.10;99.90
670;DHT22;317;48.758;9.302;2022-10-31T10:54:50;18.10;99.90
670;DHT22;317;48.758;9.302;2022-10-31T10:57:27;18.00;99.90
670;DHT22;317;48.758;9.302;2022-10-31T10:59:57;17.90;99.90
670;DHT22;317;48.758;9.302;2022-10-31T11:02:30;17.90;99.90
670;DHT22;317;48.758;9.302;2022-10-31T11:05:00;17.70;99.90
670;DHT22;317;48.758;9.302;2022-10-31T11:07:39;17.50;99.90
670;DHT22;317;48.758;9.302;2022-10-31T11:10:11;17.50;99.90
670;DHT22;317;48.758;9.302;2022-10-31T11:12:41;17.50;99.90
670;DHT22;317;48.758;9.302;2022-10-31T11:15:22;17.50;99.90
670;DHT22;317;48.758;9.302;2022-10-31T11:17:51;17.30;99.90
670;DHT22;317;48.758;9.302;2022-10-31T11:20:29;17.40;99.90
670;DHT22;317;48.758;9.302;2022-10-31T11:23:04;17.60;99.90
670;DHT22;317;48.758;9.302;2022-10-31T11:25:31;17.80;99.90
670;DHT22;317;48.758;9.302;2022-10-31T11:27:59;18.10;99.90
670;DHT22;317;48.758;9.302;2022-10-31T11:30:26;18.40;99.90
670;DHT22;317;48.758;9.302;2022-10-31T11:32:53;18.70;99.90
670;DHT22;317;48.758;9.302;2022-10-31T11:35:22;18.80;99.90
670;DHT22;317;48.758;9.302;2022-10-31T11:37:51;19.00;99.90
670;DHT22;317;48.758;9.302;2022-10-31T11:40:22;19.10;99.90
670;DHT22;317;48.758;9.302;2022-10-31T11:42:52;19.20;99.90
670;DHT22;317;48.758;9.302;2022-10-31T11:45:29;19.30;99.90
670;DHT22;317;48.758;9.302;2022-10-31T11:47:58;19.40;99.90
670;DHT22;317;48.758;9.302;2022-10-31T11:50:31;19.60;99.90
670;DHT22;317;48.758;9.302;2022-10-31T11:52:58;19.60;99.90
670;DHT22;317;48.758;9.302;2022-10-31T11:55:34;19.80;99.90
670;DHT22;317;48.758;9.302;2022-10-31T11:58:02;19.90;99.90
670;DHT22;317;48.758;9.302;2022-10-31T12:00:30;20.10;99.90
670;DHT22;317;48.758;9.302;2022-10-31T12:03:18;20.30;99.90
670;DHT22;317;48.758;9.302;2022-10-31T12:05:53;20.40;99.90
670;DHT22;317;48.758;9.302;2022-10-31T12:08:23;20.30;99.90
670;DHT22;317;48.758;9.302;2022-10-31T12:10:57;20.40;99.90
670;DHT22;317;48.758;9.302;2022-10-31T12:13:33;20.40;99.90
670;DHT22;317;48.758;9.302;2022-10-31T12:16:05;20.20;99.90
670;DHT22;317;48.758;9.302;2022-10-31T12:18:49;20.30;99.90
670;DHT22;317;48.758;9.302;2022-10-31T12:21:34;20.30;99.90
670;DHT22;317;48.758;9.302;2022-10-31T12:24:16;20.50;99.90
670;DHT22;317;48.758;9.302;2022-10-31T12:26:54;20.50;99.90
670;DHT22;317;48.758;9.302;2022-10-31T12:29:33;20.70;99.90
670;DHT22;317;48.758;9.302;2022-10-31T12:32:20;20.70;99.90
670;DHT22;317;48.758;9.302;2022-10-31T12:35:01;20.60;99.90
670;DHT22;317;48.758;9.302;2022-10-31T12:37:42;20.60;99.90
670;DHT22;317;48.758;9.302;2022-10-31T12:40:28;20.60;99.90
670;DHT22;317;48.758;9.302;2022-10-31T12:43:07;20.60;99.90
670;DHT22;317;48.758;9.302;2022-10-31T12:45:46;20.40;99.90
670;DHT22;317;48.758;9.302;2022-10-31T12:51:27;20.00;99.90
670;DHT22;317;48.758;9.302;2022-10-31T12:54:09;19.90;99.90
670;DHT22;317;48.758;9.302;2022-10-31T12:56:45;19.90;99.90
670;DHT22;317;48.758;9.302;2022-10-31T12:59:21;19.70;99.90
670;DHT22;317;48.758;9.302;2022-10-31T13:01:53;19.70;99.90
670;DHT22;317;48.758;9.302;2022-10-31T13:04:35;19.60;99.90
670;DHT22;317;48.758;9.302;2022-10-31T13:07:05;19.50;99.90
670;DHT22;317;48.758;9.302;2022-10-31T13:09:38;19.50;99.90
670;DHT22;317;48.758;9.302;2022-10-31T13:12:10;19.30;99.90
670;DHT22;317;48.758;9.302;2022-10-31T13:14:41;19.30;99.90
670;DHT22;317;48.758;9.302;2022-10-31T13:17:16;19.20;99.90
670;DHT22;317;48.758;9.302;2022-10-31T13:19:47;19.10;99.90
670;DHT22;317;48.758;9.302;2022-10-31T13:22:17;19.10;99.90
670;DHT22;317;48.758;9.302;2022-10-31T13:24:48;19.00;99.90
670;DHT22;317;48.758;9.302;2022-10-31T13:27:20;19.00;99.90
670;DHT22;317;48.758;9.302;2022-10-31T13:29:58;18.90;99.90
670;DHT22;317;48.758;9.302;2022-10-31T13:32:26;19.00;99.90
670;DHT22;317;48.758;9.302;2022-10-31T13:34:56;19.00;99.90
670;DHT22;317;48.758;9.302;2022-10-31T13:37:37;19.00;99.90
670;DHT22;317;48.758;9.302;2022-10-31T13:40:13;18.90;99.90
670;DHT22;317;48.758;9.302;2022-10-31T13:42:55;19.00;99.90
670;DHT22;317;48.758;9.302;2022-10-31T13:45:26;19.10;99.90
670;DHT22;317;48.758;9.302;2022-10-31T13:48:01;19.50;99.90
670;DHT22;317;48.758;9.302;2022-10-31T13:50:55;19.80;99.90
670;DHT22;317;48.758;9.302;2022-10-31T13:53:34;20.50;99.90
670;DHT22;317;48.758;9.302;2022-10-31T13:56:04;21.10;99.90
670;DHT22;317;48.758;9.302;2022-10-31T13:58:37;21.50;99.90
670;DHT22;317;48.758;9.302;2022-10-31T14:01:15;21.70;99.90
670;DHT22;317;48.758;9.302;2022-10-31T14:03:45;22.00;99.90
670;DHT22;317;48.758;9.302;2022-10-31T14:06:14;22.10;99.90
670;DHT22;317;48.758;9.302;2022-10-31T14:08:49;22.40;99.90
670;DHT22;317;48.758;9.302;2022-10-31T14:11:21;22.60;98.10
670;DHT22;317;48.758;9.302;2022-10-31T14:13:49;22.80;97.00
670;DHT22;317;48.758;9.302;2022-10-31T14:16:22;22.70;97.70
670;DHT22;317;48.758;9.302;2022-10-31T14:18:58;22.60;97.10
670;DHT22;317;48.758;9.302;2022-10-31T14:21:30;22.60;97.20
670;DHT22;317;48.758;9.302;2022-10-31T14:23:58;22.90;95.70
670;DHT22;317;48.758;9.302;2022-10-31T14:26:34;23.40;93.80
670;DHT22;317;48.758;9.302;2022-10-31T14:29:21;23.90;92.60
670;DHT22;317;48.758;9.302;2022-10-31T14:31:57;24.80;91.30
670;DHT22;317;48.758;9.302;2022-10-31T14:34:28;25.50;89.50
670;DHT22;317;48.758;9.302;2022-10-31T14:37:30;26.10;83.60
670;DHT22;317;48.758;9.302;2022-10-31T14:43:02;27.00;76.70
670;DHT22;317;48.758;9.302;2022-10-31T14:45:41;26.60;75.90
670;DHT22;317;48.758;9.302;2022-10-31T14:48:32;26.00;76.10
670;DHT22;317;48.758;9.302;2022-10-31T14:51:10;25.40;78.60
670;DHT22;317;48.758;9.302;2022-10-31T14:53:46;24.80;81.70
670;DHT22;317;48.758;9.302;2022-10-31T14:56:20;24.20;85.40
670;DHT22;317;48.758;9.302;2022-10-31T14:58:48;23.90;89.00
670;DHT22;317;48.758;9.302;2022-10-31T15:01:19;23.60;90.90
670;DHT22;317;48.758;9.302;2022-10-31T15:03:49;23.40;93.20
670;DHT22;317;48.758;9.302;2022-10-31T15:06:18;23.40;97.10
670;DHT22;317;48.758;9.302;2022-10-31T15:08:48;23.20;98.70
670;DHT22;317;48.758;9.302;2022-10-31T15:11:17;23.30;98.80
670;DHT22;317;48.758;9.302;2022-10-31T15:13:46;23.40;98.40
670;DHT22;317;48.758;9.302;2022-10-31T15:16:15;23.50;98.80
670;DHT22;317;48.758;9.302;2022-10-31T15:18:50;23.30;99.90
670;DHT22;317;48.758;9.302;2022-10-31T15:21:20;23.10;99.90
670;DHT22;317;48.758;9.302;2022-10-31T15:23:50;22.70;99.90
670;DHT22;317;48.758;9.302;2022-10-31T15:26:23;22.30;99.90
670;DHT22;317;48.758;9.302;2022-10-31T15:29:02;21.90;99.90
670;DHT22;317;48.758;9.302;2022-10-31T15:31:30;21.50;99.90
670;DHT22;317;48.758;9.302;2022-10-31T15:34:02;21.20;99.90
670;DHT22;317;48.758;9.302;2022-10-31T15:36:29;20.80;99.90
670;DHT22;317;48.758;9.302;2022-10-31T15:39:01;20.50;99.90
670;DHT22;317;48.758;9.302;2022-10-31T15:41:31;20.20;99.90
670;DHT22;317;48.758;9.302;2022-10-31T15:44:02;19.80;99.90
670;DHT22;317;48.758;9.302;2022-10-31T15:46:32;19.40;99.90
670;DHT22;317;48.758;9.302;2022-10-31T15:49:00;19.10;99.90
670;DHT22;317;48.758;9.302;2022-10-31T15:51:33;18.70;99.90
670;DHT22;317;48.758;9.302;2022-10-31T15:54:00;18.50;99.90
670;DHT22;317;48.758;9.302;2022-10-31T15:56:30;18.30;99.90
670;DHT22;317;48.758;9.302;2022-10-31T15:58:59;18.00;99.90
670;DHT22;317;48.758;9.302;2022-10-31T16:01:29;17.80;99.90
670;DHT22;317;48.758;9.302;2022-10-31T16:04:04;17.60;99.90
670;DHT22;317;48.758;9.302;2022-10-31T16:06:32;17.40;99.90
670;DHT22;317;48.758;9.302;2022-10-31T16:09:02;17.20;99.90
670;DHT22;317;48.758;9.302;2022-10-31T16:11:34;17.00;99.90
670;DHT22;317;48.758;9.302;2022-10-31T16:14:04;16.80;99.90
670;DHT22;317;48.758;9.302;2022-10-31T16:16:34;16.70;99.90
670;DHT22;317;48.758;9.302;2022-10-31T16:19:15;16.50;99.90
670;DHT22;317;48.758;9.302;2022-10-31T16:21:44;16.40;99.90
670;DHT22;317;48.758;9.302;2022-10-31T16:24:16;16.30;99.90
670;DHT22;317;48.758;9.302;2022-10-31T16:26:49;16.10;99.90
670;DHT22;317;48.758;9.302;2022-10-31T16:29:33;16.00;99.90
670;DHT22;317;48.758;9.302;2022-10-31T16:32:00;15.90;99.90
670;DHT22;317;48.758;9.302;2022-10-31T16:34:29;15.70;99.90
670;DHT22;317;48.758;9.302;2022-10-31T16:36:56;15.60;99.90
670;DHT22;317;48.758;9.302;2022-10-31T16:39:22;15.50;99.90
670;DHT22;317;48.758;9.302;2022-10-31T16:41:51;15.40;99.90
670;DHT22;317;48.758;9.302;2022-10-31T16:44:21;15.30;99.90
670;DHT22;317;48.758;9.302;2022-10-31T16:47:09;15.20;99.90
670;DHT22;317;48.758;9.302;2022-10-31T16:49:40;15.10;99.90
670;DHT22;317;48.758;9.302;2022-10-31T16:52:07;15.00;99.90
670;DHT22;317;48.758;9.302;2022-10-31T16:54:34;14.90;99.90
670;DHT22;317;48.758;9.302;2022-10-31T16:57:03;14.80;99.90
670;DHT22;317;48.758;9.302;2022-10-31T16:59:32;14.70;99.90
670;DHT22;317;48.758;9.302;2022-10-31T17:02:00;14.70;99.90
670;DHT22;317;48.758;9.302;2022-10-31T17:04:28;14.50;99.90
670;DHT22;317;48.758;9.302;2022-10-31T17:06:56;14.40;99.90
670;DHT22;317;48.758;9.302;2022-10-31T17:09:23;14.30;99.90
670;DHT22;317;48.758;9.302;2022-10-31T17:11:53;14.20;99.90